M I D A S
Marine Information and Data Acquisition System
Tripno 449 of the Zeeleeuw from 2003-03-20 08:16:18 to 2003-03-20 15:41:04
Back to CruiseResearch ActivitiesStationsMapUnderway DataData graphs

EquipmentUnitsComment
TimeDGPSUTC
LatitudeDGPSDM.mWGS84
LongitudeDGPSDM.mWGS84
HeadingGyrodeg 
SOGDGPSknotsSpeed over ground
COGDGPSdegCourse over ground
DepthEcho soundermeters200 kHz
Missing or incorrect values are displayed as -999
Navigation data collected by the RV Zeeleeuw from 2003-03-20 08:16:18 to 2003-03-20 15:41:04
                                                                                    Next 1000 lines
Time Latitude Longitude Heading SOG COG Depth
2003-03-20 08:16:27 51°13.788 2°55.68 332 4 327 7.8
2003-03-20 08:16:32 51°13.793 2°55.675 332.4 4.1 328 7.7
2003-03-20 08:16:38 51°13.799 2°55.668 332.8 4.1 329 7.9
2003-03-20 08:16:43 51°13.805 2°55.663 333.6 4.3 329 8
2003-03-20 08:16:48 51°13.811 2°55.658 334.4 4.4 330 8
2003-03-20 08:16:53 51°13.816 2°55.653 335.6 4.5 331 8
2003-03-20 08:16:58 51°13.822 2°55.648 336.6 4.6 332 8
2003-03-20 08:17:03 51°13.828 2°55.642 337.3 4.9 332 8.1
2003-03-20 08:17:07 51°13.833 2°55.638 337.6 5.2 332 8.1
2003-03-20 08:17:13 51°13.842 2°55.631 337.8 5.4 332 8.1
2003-03-20 08:17:18 51°13.848 2°55.625 337.9 5.6 332 8.1
2003-03-20 08:17:23 51°13.857 2°55.619 338.2 5.9 333 7.9
2003-03-20 08:17:27 51°13.863 2°55.614 339 6.2 333 7.9
2003-03-20 08:17:31 51°13.869 2°55.609 339.5 6.4 333 7.8
2003-03-20 08:17:37 51°13.879 2°55.602 339.5 6.6 334 7.9
2003-03-20 08:17:43 51°13.889 2°55.593 339.9 6.8 334 8
2003-03-20 08:17:47 51°13.896 2°55.588 340.7 6.9 335 7.9
2003-03-20 08:17:53 51°13.907 2°55.58 340.7 7.2 335 8
2003-03-20 08:17:57 51°13.914 2°55.575 340.2 7.3 335 8
2003-03-20 08:18:02 51°13.924 2°55.568 340.5 7.5 335 7.9
2003-03-20 08:18:07 51°13.934 2°55.561 340.6 7.7 335 7.9
2003-03-20 08:18:13 51°13.946 2°55.552 340.6 7.8 335 7.8
2003-03-20 08:18:16 51°13.952 2°55.547 340.9 7.9 335 7.8
2003-03-20 08:18:22 51°13.965 2°55.539 341.3 8 336 7.9
2003-03-20 08:18:28 51°13.977 2°55.53 341.3 8.1 336 7.9
2003-03-20 08:18:33 51°13.987 2°55.523 340.7 8.2 336 7.9
2003-03-20 08:18:38 51°13.998 2°55.515 340.9 8.3 336 7.9
2003-03-20 08:18:43 51°14.008 2°55.508 341.1 8.3 336 7.8
2003-03-20 08:18:47 51°14.017 2°55.502 341.1 8.4 336 7.8
2003-03-20 08:18:53 51°14.03 2°55.493 340.9 8.4 335 7.8
2003-03-20 08:18:57 51°14.038 2°55.487 340.9 8.5 335 7.8
2003-03-20 08:19:03 51°14.051 2°55.478 340.9 8.4 336 7.3
2003-03-20 08:19:08 51°14.062 2°55.47 340.2 8.4 335 5.5
2003-03-20 08:19:13 51°14.072 2°55.462 339.8 8.5 335 6.8
2003-03-20 08:19:18 51°14.083 2°55.454 339.9 8.5 334 7.6
2003-03-20 08:19:22 51°14.091 2°55.447 339.6 8.5 334 7.8
2003-03-20 08:19:27 51°14.102 2°55.438 339.5 8.5 334 7.8
2003-03-20 08:19:31 51°14.111 2°55.431 339.6 8.5 334 7.8
2003-03-20 08:19:38 51°14.126 2°55.42 339.7 8.5 334 7.8
2003-03-20 08:19:43 51°14.137 2°55.411 339 8.5 334 7.9
2003-03-20 08:19:47 51°14.146 2°55.404 337.7 8.5 333 7.8
2003-03-20 08:19:53 51°14.158 2°55.394 337.2 8.5 332 7.9
2003-03-20 08:19:57 51°14.166 2°55.386 336.5 8.5 331 7.8
2003-03-20 08:20:02 51°14.176 2°55.377 335 8.5 330 7.9
2003-03-20 08:20:07 51°14.185 2°55.368 333.4 8.5 329 7.9
2003-03-20 08:20:13 51°14.197 2°55.355 332.2 8.5 327 7.9
2003-03-20 08:20:18 51°14.207 2°55.344 330.8 8.5 326 7.9
2003-03-20 08:20:22 51°14.216 2°55.334 328 8.5 324 7.4
2003-03-20 08:20:27 51°14.225 2°55.322 325.9 8.5 322 7.8
2003-03-20 08:20:32 51°14.234 2°55.31 324.2 8.5 320 7.9
2003-03-20 08:20:38 51°14.244 2°55.294 322.8 8.5 318 7.9
2003-03-20 08:20:43 51°14.253 2°55.281 321.3 8.5 316 7.9
2003-03-20 08:20:47 51°14.259 2°55.27 320 8.5 315 7.9
2003-03-20 08:20:53 51°14.269 2°55.254 319 8.5 314 8
2003-03-20 08:20:57 51°14.275 2°55.243 317.7 8.6 313 7.9
2003-03-20 08:21:03 51°14.285 2°55.226 317.1 8.5 312 8
2003-03-20 08:21:07 51°14.291 2°55.215 317 8.6 312 8
2003-03-20 08:21:13 51°14.3 2°55.197 315.6 8.7 311 8
2003-03-20 08:21:17 51°14.307 2°55.184 314.3 8.9 310 7.9
2003-03-20 08:21:23 51°14.316 2°55.166 314.2 9.1 309 8.1
2003-03-20 08:21:27 51°14.323 2°55.153 314.8 9.2 309 8.1
2003-03-20 08:21:33 51°14.333 2°55.134 315 9.4 310 8.1
2003-03-20 08:21:37 51°14.34 2°55.121 314.8 9.5 310 7.6
2003-03-20 08:21:43 51°14.351 2°55.101 315 9.6 310 7.8
2003-03-20 08:21:47 51°14.358 2°55.088 315.6 9.6 310 8.2
2003-03-20 08:21:52 51°14.367 2°55.072 315.7 9.7 311 13
2003-03-20 08:21:58 51°14.378 2°55.052 317 9.8 311 12.9
2003-03-20 08:22:01 51°14.383 2°55.043 319.3 10 312 12.8
2003-03-20 08:22:07 51°14.395 2°55.024 320.5 10.1 313 12.9
2003-03-20 08:22:13 51°14.407 2°55.003 320.5 10.3 313 13.4
2003-03-20 08:22:17 51°14.415 2°54.989 320 10.5 312 13
2003-03-20 08:22:23 51°14.427 2°54.968 320.7 10.7 312 8.4
2003-03-20 08:22:27 51°14.435 2°54.954 322.4 10.8 313 8.5
2003-03-20 08:22:31 51°14.443 2°54.941 326.2 11.1 316 8.2
2003-03-20 08:22:38 51°14.46 2°54.919 329 11.1 319 7.9
2003-03-20 08:22:43 51°14.472 2°54.904 332.5 11.1 321 7.8
2003-03-20 08:22:48 51°14.485 2°54.889 334.1 11.1 323 7.1
2003-03-20 08:22:51 51°14.492 2°54.88 334.4 11.2 323 7.8
2003-03-20 08:22:57 51°14.508 2°54.861 334.3 11.3 322 7.2
2003-03-20 08:23:03 51°14.522 2°54.843 334.3 11.4 322 7.6
2003-03-20 08:23:08 51°14.535 2°54.828 334.3 11.4 322 7.4
2003-03-20 08:23:13 51°14.547 2°54.813 334.3 11.4 322 7.8
2003-03-20 08:23:18 51°14.56 2°54.798 334.8 11.4 323 7.7
2003-03-20 08:23:22 51°14.57 2°54.786 335.3 11.5 323 5.6
2003-03-20 08:23:27 51°14.582 2°54.77 335.6 11.5 323 7.6
2003-03-20 08:23:33 51°14.597 2°54.753 335.8 11.6 324 7.6
2003-03-20 08:23:38 51°14.61 2°54.738 335.9 11.7 324 6.2
2003-03-20 08:23:43 51°14.624 2°54.722 336 11.7 324 7.4
2003-03-20 08:23:47 51°14.635 2°54.71 336.2 11.8 324 11
2003-03-20 08:23:53 51°14.651 2°54.693 337.7 11.8 325 10.9
2003-03-20 08:23:57 51°14.662 2°54.681 338.9 11.8 326 10.8
2003-03-20 08:24:03 51°14.679 2°54.665 339.9 11.8 328 10.9
2003-03-20 08:24:07 51°14.69 2°54.653 340.6 11.9 328 11
2003-03-20 08:24:11 51°14.702 2°54.643 341.3 11.9 329 11.2
2003-03-20 08:24:17 51°14.719 2°54.626 342 11.9 329 11.1
2003-03-20 08:24:23 51°14.736 2°54.611 342.4 12 330 11.3
2003-03-20 08:24:27 51°14.748 2°54.6 342.5 12.1 330 10.8
2003-03-20 08:24:33 51°14.766 2°54.584 342.2 12.2 331 10.8
2003-03-20 08:24:37 51°14.778 2°54.573 341.8 12.2 331 10.6
2003-03-20 08:24:42 51°14.793 2°54.561 342 12.2 331 10.7
2003-03-20 08:24:48 51°14.811 2°54.546 342 12.2 332 10.5
2003-03-20 08:24:53 51°14.826 2°54.533 342.1 12.2 332 10.5
2003-03-20 08:24:57 51°14.838 2°54.522 341.1 12.3 332 10.6
2003-03-20 08:25:03 51°14.856 2°54.506 340.5 12.4 331 10.5
2003-03-20 08:25:07 51°14.868 2°54.495 339.7 12.4 330 10.7
2003-03-20 08:25:13 51°14.885 2°54.478 338.9 12.5 330 9.2
2003-03-20 08:25:17 51°14.897 2°54.467 338.4 12.5 329 7
2003-03-20 08:25:23 51°14.915 2°54.45 337.9 12.5 329 -999
2003-03-20 08:25:27 51°14.926 2°54.438 337.5 12.5 328 6.8
2003-03-20 08:25:32 51°14.941 2°54.424 337.3 12.4 328 6.7
2003-03-20 08:25:37 51°14.955 2°54.41 337.3 12.3 328 6.6
2003-03-20 08:25:43 51°14.972 2°54.393 337.1 12.1 328 6.3
2003-03-20 08:25:47 51°14.983 2°54.381 337 12.1 328 7.6
2003-03-20 08:25:53 51°15 2°54.364 337 12 328 6.5
2003-03-20 08:25:57 51°15.012 2°54.353 336.7 12 327 6.4
2003-03-20 08:26:03 51°15.029 2°54.335 336.8 11.9 327 6.3
2003-03-20 08:26:08 51°15.042 2°54.321 337.2 11.9 327 6.4
2003-03-20 08:26:13 51°15.056 2°54.307 337.7 11.8 328 8.9
2003-03-20 08:26:17 51°15.068 2°54.296 338.2 11.8 328 9
2003-03-20 08:26:23 51°15.084 2°54.279 338.6 11.9 328 9
2003-03-20 08:26:27 51°15.096 2°54.269 339.3 11.9 329 9.3
2003-03-20 08:26:33 51°15.113 2°54.252 339.7 11.9 329 9.4
2003-03-20 08:26:38 51°15.128 2°54.239 340.3 12 329 9.8
2003-03-20 08:26:43 51°15.143 2°54.225 340.7 12.1 330 10.1
2003-03-20 08:26:47 51°15.154 2°54.215 340.5 12.1 330 9.6
2003-03-20 08:26:53 51°15.172 2°54.198 340.3 12.2 329 6.7
2003-03-20 08:26:58 51°15.186 2°54.184 339.7 12.3 329 6.9
2003-03-20 08:27:03 51°15.201 2°54.17 339.4 12.4 329 6.9
2003-03-20 08:27:07 51°15.212 2°54.158 338.8 12.4 328 8.5
2003-03-20 08:27:11 51°15.223 2°54.146 338 12.4 327 7
2003-03-20 08:27:17 51°15.24 2°54.128 337.9 12.5 327 7
2003-03-20 08:27:22 51°15.254 2°54.113 337.6 12.5 327 7.1
2003-03-20 08:27:27 51°15.269 2°54.098 337.3 12.6 326 7.1
2003-03-20 08:27:33 51°15.287 2°54.079 337.9 12.7 327 7.1
2003-03-20 08:27:37 51°15.299 2°54.068 339.3 12.9 328 5.5
2003-03-20 08:27:42 51°15.315 2°54.054 340.4 12.8 329 5.5
2003-03-20 08:27:48 51°15.333 2°54.038 341.6 12.7 330 7.3
2003-03-20 08:27:53 51°15.349 2°54.024 342.6 12.8 331 7.4
2003-03-20 08:27:58 51°15.365 2°54.013 343.2 12.8 332 7.6
2003-03-20 08:28:02 51°15.379 2°54.003 343.8 12.8 332 7.6
2003-03-20 08:28:07 51°15.396 2°53.99 343.9 12.9 332 7.7
2003-03-20 08:28:13 51°15.414 2°53.974 344 12.9 332 7.7
2003-03-20 08:28:18 51°15.43 2°53.96 344.1 13 332 7.8
2003-03-20 08:28:23 51°15.445 2°53.946 344.7 13 332 7.8
2003-03-20 08:28:27 51°15.458 2°53.935 346 13 333 7.9
2003-03-20 08:28:32 51°15.474 2°53.922 346.9 13 334 7.9
2003-03-20 08:28:38 51°15.493 2°53.907 347.9 13.1 335 8
2003-03-20 08:28:43 51°15.509 2°53.894 348.4 13.1 336 8.1
2003-03-20 08:28:47 51°15.522 2°53.885 349.1 13.1 336 8.2
2003-03-20 08:28:53 51°15.542 2°53.87 349.3 13.1 336 8.2
2003-03-20 08:28:58 51°15.559 2°53.858 349.1 13.2 336 8.3
2003-03-20 08:29:03 51°15.575 2°53.845 348.1 13.3 335 7.5
2003-03-20 08:29:07 51°15.588 2°53.835 346.8 13.4 334 8.4
2003-03-20 08:29:13 51°15.608 2°53.818 345.8 13.4 333 8.5
2003-03-20 08:29:17 51°15.621 2°53.806 344.5 13.4 332 8.6
2003-03-20 08:29:21 51°15.634 2°53.794 343.8 13.5 331 8.6
2003-03-20 08:29:27 51°15.653 2°53.777 343.4 13.5 330 8.7
2003-03-20 08:29:33 51°15.673 2°53.758 343 13.6 330 8.8
2003-03-20 08:29:37 51°15.686 2°53.746 343 13.6 330 8.9
2003-03-20 08:29:43 51°15.706 2°53.729 343.7 13.7 331 8.9
2003-03-20 08:29:47 51°15.719 2°53.718 344 13.7 331 9
2003-03-20 08:29:51 51°15.732 2°53.707 344.6 13.7 332 9.1
2003-03-20 08:29:58 51°15.755 2°53.687 344.7 13.7 332 9.2
2003-03-20 08:30:03 51°15.772 2°53.672 344.7 13.8 332 9.2
2003-03-20 08:30:07 51°15.786 2°53.661 344.4 13.8 332 9.3
2003-03-20 08:30:11 51°15.799 2°53.649 344.2 13.8 331 9.4
2003-03-20 08:30:17 51°15.819 2°53.632 344.1 13.9 331 9.3
2003-03-20 08:30:23 51°15.84 2°53.614 344 13.8 331 9.4
2003-03-20 08:30:28 51°15.856 2°53.6 343.8 13.8 332 9.5
2003-03-20 08:30:33 51°15.873 2°53.585 343.8 13.8 332 9.5
2003-03-20 08:30:38 51°15.89 2°53.571 343.9 13.8 332 9.6
2003-03-20 08:30:43 51°15.907 2°53.557 343.7 13.8 332 9.6
2003-03-20 08:30:48 51°15.924 2°53.542 343.7 13.8 332 9.7
2003-03-20 08:30:51 51°15.934 2°53.533 343.5 13.8 332 9.8
2003-03-20 08:30:57 51°15.955 2°53.515 343.3 13.8 331 9.7
2003-03-20 08:31:03 51°15.975 2°53.498 343.4 13.8 332 9.8
2003-03-20 08:31:08 51°15.992 2°53.484 343.5 13.8 332 9.8
2003-03-20 08:31:13 51°16.009 2°53.469 343.5 13.7 332 9.9
2003-03-20 08:31:17 51°16.023 2°53.457 343.3 13.7 331 9.9
2003-03-20 08:31:22 51°16.039 2°53.443 343.2 13.7 331 9.9
2003-03-20 08:31:27 51°16.056 2°53.428 343 13.7 331 10
2003-03-20 08:31:32 51°16.072 2°53.413 342.8 13.7 331 10
2003-03-20 08:31:38 51°16.092 2°53.396 342.8 13.7 331 10.1
2003-03-20 08:31:43 51°16.109 2°53.381 342.9 13.7 331 10.1
2003-03-20 08:31:47 51°16.122 2°53.37 342.8 13.7 331 10.1
2003-03-20 08:31:51 51°16.135 2°53.358 342.7 13.7 331 10.1
2003-03-20 08:31:58 51°16.158 2°53.337 342.6 13.7 330 10.2
2003-03-20 08:32:03 51°16.176 2°53.322 342.6 13.8 330 10.2
2003-03-20 08:32:07 51°16.189 2°53.31 342.6 13.7 330 10.3
2003-03-20 08:32:13 51°16.209 2°53.292 342.7 13.7 330 10.3
2003-03-20 08:32:18 51°16.226 2°53.277 342.5 13.9 330 10.3
2003-03-20 08:32:23 51°16.242 2°53.262 342.2 13.8 330 10.4
2003-03-20 08:32:27 51°16.255 2°53.249 342.2 13.7 330 10.4
2003-03-20 08:32:33 51°16.274 2°53.232 342.5 13.7 330 10.4
2003-03-20 08:32:38 51°16.291 2°53.217 342.7 13.7 330 10.4
2003-03-20 08:32:43 51°16.308 2°53.203 343.2 13.7 331 10.5
2003-03-20 08:32:48 51°16.324 2°53.19 343.6 13.6 332 10.4
2003-03-20 08:32:53 51°16.341 2°53.176 343.7 13.5 333 10.4
2003-03-20 08:32:57 51°16.354 2°53.165 343.3 13.5 333 10.4
2003-03-20 08:33:03 51°16.374 2°53.149 343 13.5 333 10.4
2003-03-20 08:33:07 51°16.387 2°53.138 342.6 13.6 333 10.4
2003-03-20 08:33:13 51°16.407 2°53.121 342.2 13.6 332 10.4
2003-03-20 08:33:18 51°16.423 2°53.108 341.9 13.5 332 10.4
2003-03-20 08:33:23 51°16.439 2°53.094 342.3 13.5 332 10.3
2003-03-20 08:33:27 51°16.453 2°53.083 342.3 13.5 333 10.3
2003-03-20 08:33:33 51°16.472 2°53.067 342.3 13.4 333 10.2
2003-03-20 08:33:38 51°16.489 2°53.053 342.7 13.4 333 10.2
2003-03-20 08:33:43 51°16.506 2°53.04 342.5 13.4 334 10.1
2003-03-20 08:33:47 51°16.519 2°53.03 342.5 13.4 334 10.1
2003-03-20 08:33:52 51°16.536 2°53.016 342.4 13.4 333 10
2003-03-20 08:33:57 51°16.552 2°53.003 342.3 13.4 333 9.9
2003-03-20 08:34:03 51°16.572 2°52.988 342.3 13.4 333 9.8
2003-03-20 08:34:07 51°16.585 2°52.977 342.2 13.4 334 9.7
2003-03-20 08:34:13 51°16.605 2°52.962 342.3 13.3 334 9.7
2003-03-20 08:34:18 51°16.621 2°52.948 342 13.3 333 9.6
2003-03-20 08:34:22 51°16.634 2°52.938 342.1 13.3 333 9.5
2003-03-20 08:34:27 51°16.65 2°52.925 342.4 13.2 334 9.4
2003-03-20 08:34:33 51°16.67 2°52.91 342.4 13.2 334 9.3
2003-03-20 08:34:38 51°16.687 2°52.896 342.2 13.2 334 9.2
2003-03-20 08:34:42 51°16.7 2°52.886 342.1 13.1 334 9.1
2003-03-20 08:34:47 51°16.716 2°52.873 342.1 13.1 334 8.8
2003-03-20 08:34:53 51°16.736 2°52.858 342.2 13.1 334 8.7
2003-03-20 08:34:57 51°16.749 2°52.848 342.2 13 334 8.4
2003-03-20 08:35:02 51°16.764 2°52.835 342 12.9 333 7.8
2003-03-20 08:35:07 51°16.78 2°52.822 341.9 12.8 333 5.6
2003-03-20 08:35:13 51°16.799 2°52.807 342.1 12.6 333 5.5
2003-03-20 08:35:17 51°16.811 2°52.798 342.5 12.4 334 5.6
2003-03-20 08:35:23 51°16.83 2°52.784 342.6 12.3 334 7.6
2003-03-20 08:35:27 51°16.842 2°52.775 343.1 12.2 334 7.5
2003-03-20 08:35:33 51°16.861 2°52.761 343.6 12.2 335 7.3
2003-03-20 08:35:37 51°16.874 2°52.751 344.1 12.2 335 5.5
2003-03-20 08:35:42 51°16.889 2°52.74 344.2 12.2 335 7.3
2003-03-20 08:35:47 51°16.904 2°52.729 344 12.1 335 5.5
2003-03-20 08:35:53 51°16.922 2°52.716 343.8 12.1 334 7.4
2003-03-20 08:35:58 51°16.937 2°52.704 344 12.1 335 7.6
2003-03-20 08:36:03 51°16.953 2°52.692 344.3 12.2 335 7.7
2003-03-20 08:36:08 51°16.968 2°52.681 344.4 12.3 335 7.8
2003-03-20 08:36:12 51°16.981 2°52.671 344.5 12.5 335 8
2003-03-20 08:36:18 51°17 2°52.657 344.1 12.7 334 8.1
2003-03-20 08:36:23 51°17.015 2°52.645 343.9 12.7 334 8.2
2003-03-20 08:36:27 51°17.028 2°52.635 343.3 12.7 334 8.1
2003-03-20 08:36:33 51°17.048 2°52.621 344.7 12.7 335 7.9
2003-03-20 08:36:36 51°17.058 2°52.615 348 12.6 338 5.6
2003-03-20 08:36:43 51°17.08 2°52.604 352 12.4 342 7.6
2003-03-20 08:36:47 51°17.093 2°52.599 354.9 12.3 346 7.6
2003-03-20 08:36:51 51°17.107 2°52.596 358.3 12.1 349 7.6
2003-03-20 08:36:58 51°17.13 2°52.591 0.3 12 351 7.6
2003-03-20 08:37:03 51°17.146 2°52.588 2.2 11.9 353 7.6
2003-03-20 08:37:07 51°17.159 2°52.586 3.3 11.9 355 7.7
2003-03-20 08:37:12 51°17.176 2°52.584 4.1 11.9 356 7.7
2003-03-20 08:37:18 51°17.196 2°52.583 4.8 12 356 7.8
2003-03-20 08:37:23 51°17.213 2°52.582 5 12 357 7.8
2003-03-20 08:37:27 51°17.227 2°52.581 5.3 12.1 357 5.8
2003-03-20 08:37:33 51°17.247 2°52.58 5.2 12.2 357 8
2003-03-20 08:37:38 51°17.264 2°52.578 4.8 12.2 356 7.9
2003-03-20 08:37:43 51°17.28 2°52.576 4.2 12.2 356 8.2
2003-03-20 08:37:47 51°17.294 2°52.573 3.8 12.2 355 7.9
2003-03-20 08:37:53 51°17.314 2°52.571 3.3 12.3 355 8
2003-03-20 08:37:58 51°17.331 2°52.568 2.9 12.3 354 8
2003-03-20 08:38:03 51°17.347 2°52.565 2.1 12.3 354 8.2
2003-03-20 08:38:07 51°17.361 2°52.562 1.3 12.3 353 8
2003-03-20 08:38:13 51°17.381 2°52.557 0.8 12.3 352 8.1
2003-03-20 08:38:18 51°17.398 2°52.553 0.7 12.3 352 8.2
2003-03-20 08:38:23 51°17.415 2°52.55 1.3 12.3 352 8.2
2003-03-20 08:38:28 51°17.433 2°52.547 2.2 12.4 353 8.2
2003-03-20 08:38:33 51°17.45 2°52.545 2.9 12.4 354 8.3
2003-03-20 08:38:37 51°17.463 2°52.543 3.7 12.4 355 8.3
2003-03-20 08:38:43 51°17.484 2°52.541 4.2 12.3 355 8.3
2003-03-20 08:38:48 51°17.501 2°52.54 4.7 12.3 356 8.3
2003-03-20 08:38:53 51°17.519 2°52.538 4.4 12.3 356 8.5
2003-03-20 08:38:58 51°17.536 2°52.536 4 12.4 355 8.3
2003-03-20 08:39:02 51°17.55 2°52.534 3.5 12.4 355 8.3
2003-03-20 08:39:07 51°17.567 2°52.531 3 12.4 354 8.5
2003-03-20 08:39:12 51°17.584 2°52.527 2.1 12.4 353 8.4
2003-03-20 08:39:18 51°17.604 2°52.523 1.6 12.4 352 8.5
2003-03-20 08:39:23 51°17.621 2°52.519 1.4 12.4 352 8.4
2003-03-20 08:39:27 51°17.635 2°52.516 1.4 12.4 352 8.5
2003-03-20 08:39:32 51°17.652 2°52.513 2.5 12.4 353 8.4
2003-03-20 08:39:38 51°17.672 2°52.511 3.5 12.4 354 8.5
2003-03-20 08:39:42 51°17.686 2°52.509 4.2 12.4 355 8.5
2003-03-20 08:39:48 51°17.707 2°52.508 5.3 12.4 357 8.5
2003-03-20 08:39:53 51°17.724 2°52.507 6.4 12.3 358 8.4
2003-03-20 08:39:57 51°17.737 2°52.506 7 12.3 359 8.3
2003-03-20 08:40:03 51°17.758 2°52.506 7.8 12.3 359 8.5
2003-03-20 08:40:07 51°17.771 2°52.506 7.9 12.3 359 8.4
2003-03-20 08:40:13 51°17.792 2°52.506 8.1 12.3   8.4
2003-03-20 08:40:18 51°17.809 2°52.505 7.9 12.3 359 8.5
2003-03-20 08:40:23 51°17.826 2°52.505 8.2 12.3   8.5
2003-03-20 08:40:27 51°17.84 2°52.505 8.7 12.3   8.5
2003-03-20 08:40:33 51°17.86 2°52.507 9.4 12.3 1 8.5
2003-03-20 08:40:38 51°17.877 2°52.509 11.5 12.3 3 8.5
2003-03-20 08:40:43 51°17.893 2°52.513 15.2 12.2 7 8.6
2003-03-20 08:40:48 51°17.91 2°52.518 17.9 12.2 10 8.5
2003-03-20 08:40:53 51°17.927 2°52.526 20.6 12.2 13 8.7
2003-03-20 08:40:58 51°17.943 2°52.536 25.2 12.1 18 8.7
2003-03-20 08:41:03 51°17.958 2°52.547 30.6 12 23 8.7
2003-03-20 08:41:07 51°17.969 2°52.557 35.6 12 29 8.7
2003-03-20 08:41:12 51°17.982 2°52.571 37.2 12 32 8.7
2003-03-20 08:41:18 51°17.998 2°52.589 38.9 12 33 8.8
2003-03-20 08:41:23 51°18.012 2°52.604 39.7 12.1 34 8.8
2003-03-20 08:41:28 51°18.025 2°52.62 40.6 12.1 35 8.9
2003-03-20 08:41:31 51°18.033 2°52.629 41 12.1 36 8.8
2003-03-20 08:41:38 51°18.052 2°52.653 42.8 12.1 37 8.8
2003-03-20 08:41:43 51°18.064 2°52.67 44.9 12.1 40 8.8
2003-03-20 08:41:47 51°18.074 2°52.684 46.4 12.1 42 8.6
2003-03-20 08:41:53 51°18.088 2°52.707 47.9 12.1 43 8.9
2003-03-20 08:41:58 51°18.1 2°52.725 48.9 12.2 44 8.9
2003-03-20 08:42:03 51°18.111 2°52.745 50 12.1 46 8.9
2003-03-20 08:42:07 51°18.121 2°52.761 51.5 12.1 47 8.8
2003-03-20 08:42:11 51°18.129 2°52.778 53 12.1 49 8.9
2003-03-20 08:42:17 51°18.141 2°52.803 54.2 12.1 51 8.9
2003-03-20 08:42:23 51°18.153 2°52.828 54.7 12.1 52 8.9
2003-03-20 08:42:28 51°18.163 2°52.849 55.4 12.1 52 9
2003-03-20 08:42:33 51°18.173 2°52.871 55.6 12.1 53 9
2003-03-20 08:42:38 51°18.184 2°52.892 55 12.2 52 9
2003-03-20 08:42:43 51°18.194 2°52.913 54.9 12.2 52 9
2003-03-20 08:42:48 51°18.205 2°52.934 54.6 12.1 51 9
2003-03-20 08:42:51 51°18.212 2°52.946 54.3 12.1 51 9.1
2003-03-20 08:42:57 51°18.224 2°52.971 54.6 12.1 51 9.1
2003-03-20 08:43:03 51°18.237 2°52.996 54.4 12.1 51 9.1
2003-03-20 08:43:07 51°18.246 2°53.013 54.8 12.1 51 9.1
2003-03-20 08:43:13 51°18.259 2°53.039 54.8 12.1 52 9
2003-03-20 08:43:17 51°18.267 2°53.056 54.6 12.1 52 9.1
2003-03-20 08:43:22 51°18.278 2°53.076 54.8 12.1 51 9.1
2003-03-20 08:43:28 51°18.291 2°53.102 54.8 12.1 51 9.1
2003-03-20 08:43:33 51°18.301 2°53.123 54.4 12.1 51 9.1
2003-03-20 08:43:38 51°18.312 2°53.144 54.6 12.1 51 9.1
2003-03-20 08:43:42 51°18.32 2°53.16 54.8 12.1 51 9.1
2003-03-20 08:43:47 51°18.331 2°53.181 54.7 12.1 51 9.2
2003-03-20 08:43:53 51°18.344 2°53.206 54.8 12.1 51 9.2
2003-03-20 08:43:57 51°18.352 2°53.223 55.1 12.1 51 9.2
2003-03-20 08:44:03 51°18.365 2°53.248 54.8 12.1 51 9.2
2003-03-20 08:44:07 51°18.373 2°53.264 55 12.1 51 9.2
2003-03-20 08:44:13 51°18.385 2°53.289 55.1 12.1 51 9.2
2003-03-20 08:44:18 51°18.396 2°53.31 55.1 12 51 9.3
2003-03-20 08:44:23 51°18.406 2°53.331 55.1 12 51 9.2
2003-03-20 08:44:28 51°18.416 2°53.352 55.1 12 51 9.2
2003-03-20 08:44:31 51°18.423 2°53.364 54.7 12 51 9.3
2003-03-20 08:44:37 51°18.435 2°53.389 54.9 12 51 9.3
2003-03-20 08:44:43 51°18.448 2°53.413 54.9 12 51 9.3
2003-03-20 08:44:48 51°18.458 2°53.433 55 12 51 9.3
2003-03-20 08:44:53 51°18.469 2°53.454 54.8 12 51 9.3
2003-03-20 08:44:58 51°18.48 2°53.474 55 12 51 9.4
2003-03-20 08:45:02 51°18.488 2°53.491 55 12 51 9.4
2003-03-20 08:45:07 51°18.498 2°53.512 54.9 12 51 9.4
2003-03-20 08:45:13 51°18.511 2°53.537 55 12 51 9.4
2003-03-20 08:45:17 51°18.519 2°53.553 55.1 12 51 9.4
2003-03-20 08:45:23 51°18.532 2°53.577 54.9 11.9 51 9.4
2003-03-20 08:45:27 51°18.54 2°53.593 55.4 11.9 51 9.4
2003-03-20 08:45:32 51°18.55 2°53.614 55.1 11.9 51 9.4
2003-03-20 08:45:38 51°18.562 2°53.639 55.1 11.9 51 9.5
2003-03-20 08:45:43 51°18.573 2°53.659 55.3 11.9 51 9.5
2003-03-20 08:45:47 51°18.58 2°53.676 56.3 11.9 53 9.4
2003-03-20 08:45:51 51°18.588 2°53.692 57.1 11.9 53 9.5
2003-03-20 08:45:57 51°18.599 2°53.719 59.5 11.9 56 9.5
2003-03-20 08:46:03 51°18.61 2°53.746 60.9 11.9 57 9.5
2003-03-20 08:46:08 51°18.618 2°53.769 62.4 11.9 59 9.5
2003-03-20 08:46:13 51°18.626 2°53.792 63.5 11.9 60 9.5
2003-03-20 08:46:18 51°18.634 2°53.816 64.5 11.9 62 9.5
2003-03-20 08:46:22 51°18.64 2°53.835 64.7 11.9 62 9.5
2003-03-20 08:46:27 51°18.647 2°53.858 65.2 11.9 63 9.5
2003-03-20 08:46:32 51°18.654 2°53.881 66 11.9 64 9.5
2003-03-20 08:46:38 51°18.663 2°53.909 65.8 11.8 64 9.5
2003-03-20 08:46:43 51°18.67 2°53.932 65.6 11.9 63 9.4
2003-03-20 08:46:47 51°18.676 2°53.951 66 11.8 64 9.5
2003-03-20 08:46:53 51°18.684 2°53.979 66 11.8 64 9.5
2003-03-20 08:46:57 51°18.69 2°53.998 66.3 11.8 64 9.5
2003-03-20 08:47:03 51°18.699 2°54.026 66 11.8 64 9.6
2003-03-20 08:47:07 51°18.704 2°54.045 66 11.8 64 9.5
2003-03-20 08:47:13 51°18.713 2°54.073 65.9 11.8 64 9.5
2003-03-20 08:47:18 51°18.72 2°54.097 65.5 11.8 64 9.5
2003-03-20 08:47:23 51°18.727 2°54.121 65.9 11.8 64 9.6
2003-03-20 08:47:27 51°18.732 2°54.14 66 11.8 64 9.6
2003-03-20 08:47:33 51°18.742 2°54.167 65.7 11.8 64 9.5
2003-03-20 08:47:38 51°18.749 2°54.191 65.7 11.8 63 9.5
2003-03-20 08:47:43 51°18.757 2°54.213 65.6 11.8 63 9.6
2003-03-20 08:47:47 51°18.763 2°54.232 65.7 11.8 63 9.6
2003-03-20 08:47:52 51°18.771 2°54.255 65.7 11.8 63 9.6
2003-03-20 08:47:57 51°18.778 2°54.278 66 11.8 63 9.6
2003-03-20 08:48:03 51°18.786 2°54.307 65.9 11.8 64 9.5
2003-03-20 08:48:07 51°18.792 2°54.325 65.6 11.8 64 9.6
2003-03-20 08:48:13 51°18.801 2°54.353 65.7 11.9 63 9.6
2003-03-20 08:48:18 51°18.809 2°54.376 65.8 11.9 63 9.6
2003-03-20 08:48:23 51°18.817 2°54.399 65.9 11.9 63 9.6
2003-03-20 08:48:27 51°18.822 2°54.419 66 11.9 64 9.6
2003-03-20 08:48:31 51°18.828 2°54.438 65.3 11.9 63 9.6
2003-03-20 08:48:38 51°18.838 2°54.472 65.8 11.9 63 9.7
2003-03-20 08:48:42 51°18.844 2°54.49 65.6 11.9 63 9.6
2003-03-20 08:48:47 51°18.852 2°54.514 65.7 11.9 64 9.6
2003-03-20 08:48:52 51°18.86 2°54.536 65.6 11.8 63 9.7
2003-03-20 08:48:58 51°18.869 2°54.564 65.7 11.8 63 9.7
2003-03-20 08:49:03 51°18.876 2°54.588 65.9 11.9 63 9.6
2003-03-20 08:49:08 51°18.883 2°54.612 65.8 12 64 9.6
2003-03-20 08:49:13 51°18.891 2°54.635 65.5 12 63 9.6
2003-03-20 08:49:18 51°18.898 2°54.659 65.6 11.9 63 9.6
2003-03-20 08:49:23 51°18.906 2°54.682 65.2 11.9 63 9.6
2003-03-20 08:49:27 51°18.912 2°54.702 65.8 11.9 63 9.6
2003-03-20 08:49:33 51°18.921 2°54.73 65.8 11.9 63 9.6
2003-03-20 08:49:37 51°18.927 2°54.749 65.4 12 63 9.6
2003-03-20 08:49:43 51°18.936 2°54.777 65.4 11.9 63 9.6
2003-03-20 08:49:48 51°18.944 2°54.8 65.5 11.9 63 9.7
2003-03-20 08:49:53 51°18.951 2°54.824 65.9 12 63 9.7
2003-03-20 08:49:58 51°18.959 2°54.848 65.8 12 63 9.6
2003-03-20 08:50:03 51°18.966 2°54.872 65.8 12 63 9.7
2003-03-20 08:50:07 51°18.972 2°54.891 65.5 12 63 9.7
2003-03-20 08:50:13 51°18.981 2°54.919 65.3 12 63 9.7
2003-03-20 08:50:17 51°18.987 2°54.938 65.3 12 63 9.7
2003-03-20 08:50:21 51°18.993 2°54.957 65.4 12 63 9.7
2003-03-20 08:50:27 51°19.002 2°54.984 65.5 12 63 9.7
2003-03-20 08:50:33 51°19.011 2°55.013 65.7 11.9 63 9.6
2003-03-20 08:50:37 51°19.018 2°55.031 65.3 11.9 63 9.7
2003-03-20 08:50:43 51°19.027 2°55.059 65.3 11.9 63 9.7
2003-03-20 08:50:47 51°19.033 2°55.078 65.3 11.9 63 9.6
2003-03-20 08:50:51 51°19.039 2°55.097 65.3 11.9 63 9.7
2003-03-20 08:50:57 51°19.048 2°55.125 65 11.9 62 9.7
2003-03-20 08:51:03 51°19.057 2°55.153 65 11.9 63 9.7
2003-03-20 08:51:07 51°19.063 2°55.172 64.9 11.9 63 9.7
2003-03-20 08:51:11 51°19.069 2°55.191 65.3 11.8 63 9.7
2003-03-20 08:51:18 51°19.079 2°55.224 65.9 11.8 63 9.6
2003-03-20 08:51:23 51°19.086 2°55.247 65.8 11.9 64 9.7
2003-03-20 08:51:27 51°19.092 2°55.266 65.6 11.9 64 9.7
2003-03-20 08:51:33 51°19.101 2°55.294 65.3 11.8 63 9.7
2003-03-20 08:51:38 51°19.108 2°55.317 65.4 11.8 63 9.7
2003-03-20 08:51:42 51°19.114 2°55.335 65.4 11.8 63 9.7
2003-03-20 08:51:47 51°19.122 2°55.359 65.4 11.9 63 9.7
2003-03-20 08:51:53 51°19.131 2°55.387 65.6 11.9 63 9.7
2003-03-20 08:51:58 51°19.138 2°55.41 65.4 11.9 63 9.7
2003-03-20 08:52:03 51°19.146 2°55.433 65.3 11.9 63 9.7
2003-03-20 08:52:07 51°19.152 2°55.452 65.4 11.8 63 9.7
2003-03-20 08:52:11 51°19.158 2°55.47 65.5 11.8 63 9.6
2003-03-20 08:52:18 51°19.168 2°55.503 65.5 11.8 63 9.6
2003-03-20 08:52:22 51°19.174 2°55.522 65.7 11.8 63 9.7
2003-03-20 08:52:27 51°19.182 2°55.545 65.2 11.8 63 9.7
2003-03-20 08:52:31 51°19.188 2°55.564 65.5 11.8 63 9.7
2003-03-20 08:52:37 51°19.197 2°55.592 65.5 11.9 63 9.7
2003-03-20 08:52:43 51°19.207 2°55.62 65.3 11.9 63 9.6
2003-03-20 08:52:47 51°19.213 2°55.639 65.5 11.8 63 9.8
2003-03-20 08:52:53 51°19.222 2°55.667 65.5 11.8 63 9.7
2003-03-20 08:52:58 51°19.23 2°55.69 65.2 11.8 63 9.7
2003-03-20 08:53:03 51°19.238 2°55.713 65.2 11.8 63 9.6
2003-03-20 08:53:08 51°19.246 2°55.736 65.5 11.8 63 9.6
2003-03-20 08:53:12 51°19.252 2°55.755 65.1 11.8 63 9.6
2003-03-20 08:53:18 51°19.261 2°55.782 65.2 11.8 62 9.6
2003-03-20 08:53:23 51°19.269 2°55.806 65.4 11.7 63 9.7
2003-03-20 08:53:28 51°19.277 2°55.829 65.3 11.7 63 9.6
2003-03-20 08:53:32 51°19.283 2°55.848 65.4 11.7 63 9.6
2003-03-20 08:53:38 51°19.292 2°55.875 65.3 11.7 63 9.7
2003-03-20 08:53:43 51°19.299 2°55.898 65.1 11.7 62 9.6
2003-03-20 08:53:47 51°19.305 2°55.916 65.3 11.7 62 9.6
2003-03-20 08:53:53 51°19.314 2°55.943 64.9 11.7 62 9.6
2003-03-20 08:53:58 51°19.321 2°55.966 65.1 11.7 62 9.6
2003-03-20 08:54:03 51°19.329 2°55.988 65.4 11.7 62 9.6
2003-03-20 08:54:07 51°19.335 2°56.006 65.7 11.7 63 9.6
2003-03-20 08:54:13 51°19.344 2°56.033 65.9 11.7 63 9.6
2003-03-20 08:54:18 51°19.351 2°56.056 65.6 11.7 63 9.6
2003-03-20 08:54:23 51°19.358 2°56.079 65.6 11.6 62 9.6
2003-03-20 08:54:28 51°19.365 2°56.102 65.7 11.6 63 9.5
2003-03-20 08:54:33 51°19.372 2°56.125 65.6 11.6 62 9.6
2003-03-20 08:54:37 51°19.378 2°56.143 65.4 11.7 62 9.5
2003-03-20 08:54:43 51°19.387 2°56.171 65.5 11.7 63 9.5
2003-03-20 08:54:47 51°19.393 2°56.189 65.5 11.7 62 9.5
2003-03-20 08:54:53 51°19.402 2°56.218 65.4 11.7 63 9.5
2003-03-20 08:54:57 51°19.409 2°56.236 65.3 11.7 62 9.5
2003-03-20 08:55:03 51°19.418 2°56.263 65.3 11.7 62 9.5
2003-03-20 08:55:07 51°19.424 2°56.282 65.3 11.7 63 9.5
2003-03-20 08:55:13 51°19.433 2°56.309 65.9 11.7 63 9.5
2003-03-20 08:55:18 51°19.441 2°56.331 65.4 11.7 63 9.6
2003-03-20 08:55:23 51°19.448 2°56.354 65.3 11.7 62 9.6
2003-03-20 08:55:28 51°19.456 2°56.377 65.6 11.7 62 9.6
2003-03-20 08:55:31 51°19.46 2°56.391 65.7 11.7 62 9.6
2003-03-20 08:55:38 51°19.47 2°56.423 65.3 11.7 63 9.5
2003-03-20 08:55:43 51°19.477 2°56.446 65.3 11.7 62 9.5
2003-03-20 08:55:47 51°19.483 2°56.464 66.1 11.7 63 9.6
2003-03-20 08:55:53 51°19.492 2°56.492 66.8 11.6 63 9.6
2003-03-20 08:55:58 51°19.498 2°56.515 67.5 11.7 65 9.5
2003-03-20 08:56:03 51°19.505 2°56.538 67.8 11.6 65 9.5
2003-03-20 08:56:07 51°19.51 2°56.558 68.2 11.6 65 9.5
2003-03-20 08:56:12 51°19.517 2°56.581 68.8 11.6 66 9.5
2003-03-20 08:56:17 51°19.524 2°56.605 68.4 11.6 66 9.6
2003-03-20 08:56:23 51°19.531 2°56.634 68.8 11.6 66 9.5
2003-03-20 08:56:27 51°19.537 2°56.652 68.8 11.6 66 9.5
2003-03-20 08:56:31 51°19.542 2°56.671 68.3 11.6 66 9.5
2003-03-20 08:56:37 51°19.55 2°56.699 68.2 11.6 65 9.5
2003-03-20 08:56:42 51°19.557 2°56.722 68.5 11.5 65 9.5
2003-03-20 08:56:47 51°19.563 2°56.745 68.7 11.5 66 9.5
2003-03-20 08:56:53 51°19.572 2°56.773 68.5 11.5 65 9.5
2003-03-20 08:56:57 51°19.577 2°56.792 68.5 11.5 66 9.5
2003-03-20 08:57:03 51°19.585 2°56.819 68.2 11.5 65 9.5
2003-03-20 08:57:07 51°19.59 2°56.838 68.2 11.5 65 9.4
2003-03-20 08:57:13 51°19.599 2°56.865 68.2 11.5 65 9.4
2003-03-20 08:57:18 51°19.605 2°56.888 68.6 11.5 65 9.4
2003-03-20 08:57:23 51°19.612 2°56.911 68.6 11.5 66 9.4
2003-03-20 08:57:27 51°19.617 2°56.93 68.4 11.5 65 9.5
2003-03-20 08:57:33 51°19.625 2°56.957 68.9 11.4 66 9.4
2003-03-20 08:57:38 51°19.631 2°56.98 69.2 11.4 66 9.4
2003-03-20 08:57:43 51°19.638 2°57.003 68.8 11.4 66 9.4
2003-03-20 08:57:47 51°19.643 2°57.022 68.6 11.4 66 9.4
2003-03-20 08:57:53 51°19.651 2°57.049 68.2 11.4 65 9.4
2003-03-20 08:57:58 51°19.657 2°57.072 68.7 11.4 66 9.4
2003-03-20 08:58:03 51°19.664 2°57.095 68.4 11.4 65 9.3
2003-03-20 08:58:08 51°19.671 2°57.118 68.2 11.4 65 9.3
2003-03-20 08:58:12 51°19.676 2°57.136 68.8 11.4 66 9.4
2003-03-20 08:58:18 51°19.684 2°57.164 68.7 11.3 66 9.3
2003-03-20 08:58:23 51°19.69 2°57.187 68.2 11.4 65 9.3
2003-03-20 08:58:28 51°19.697 2°57.209 68.2 11.4 65 9.4
2003-03-20 08:58:32 51°19.702 2°57.228 68.9 11.4 65 9.3
2003-03-20 08:58:38 51°19.71 2°57.255 68.6 11.4 65 9.3
2003-03-20 08:58:43 51°19.717 2°57.278 68.2 11.4 65 9.3
2003-03-20 08:58:47 51°19.722 2°57.296 68.2 11.4 65 9.4
2003-03-20 08:58:52 51°19.729 2°57.319 68.2 11.4 65 9.4
2003-03-20 08:58:58 51°19.737 2°57.346 68.6 11.4 65 9.3
2003-03-20 08:59:03 51°19.744 2°57.369 68.6 11.4 66 9.4
2003-03-20 08:59:07 51°19.749 2°57.388 68.5 11.5 65 9.4
2003-03-20 08:59:12 51°19.756 2°57.411 68.4 11.5 65 9.4
2003-03-20 08:59:18 51°19.764 2°57.438 68.5 11.5 66 8.2
2003-03-20 08:59:23 51°19.77 2°57.462 68.4 11.5 66 9.3
2003-03-20 08:59:27 51°19.775 2°57.48 68.6 11.5 66 9.3
2003-03-20 08:59:31 51°19.781 2°57.499 68.6 11.5 66 9.3
2003-03-20 08:59:37 51°19.789 2°57.527 68.5 11.5 66 9.3
2003-03-20 08:59:43 51°19.797 2°57.554 68.2 11.5 65 9.3
2003-03-20 08:59:47 51°19.802 2°57.573 68.5 11.5 66 9.3
2003-03-20 08:59:52 51°19.808 2°57.596 68.2 11.5 65 9.3
2003-03-20 08:59:58 51°19.816 2°57.624 68.5 11.5 66 8.5
2003-03-20 09:00:02 51°19.822 2°57.642 68.5 11.5 66 9.3
2003-03-20 09:00:07 51°19.829 2°57.665 68.4 11.5 66 9.3
2003-03-20 09:00:13 51°19.837 2°57.693 68.2 11.5 65 9.2
2003-03-20 09:00:18 51°19.843 2°57.716 68.2 11.5 65 9.2
2003-03-20 09:00:23 51°19.851 2°57.739 67.9 11.6 65 9.2
2003-03-20 09:00:27 51°19.856 2°57.758 68.1 11.6 65 9.2
2003-03-20 09:00:33 51°19.863 2°57.786 68.2 11.5 65 9.2
2003-03-20 09:00:37 51°19.868 2°57.805 68.9 11.5 66 9.2
2003-03-20 09:00:43 51°19.876 2°57.832 68.6 11.5 66 9.2
2003-03-20 09:00:47 51°19.882 2°57.851 69.2 11.5 66 9.2
2003-03-20 09:00:53 51°19.889 2°57.879 68.7 11.5 66 9.2
2003-03-20 09:00:57 51°19.895 2°57.897 68.5 11.5 66 9.2
2003-03-20 09:01:03 51°19.903 2°57.925 68.2 11.5 65 9.2
2003-03-20 09:01:07 51°19.909 2°57.943 68.5 11.5 65 9.2
2003-03-20 09:01:13 51°19.917 2°57.97 68 11.5 65 9.1
2003-03-20 09:01:17 51°19.922 2°57.989 68.2 11.5 65 8.9
2003-03-20 09:01:23 51°19.931 2°58.017 68.2 11.5 65 9.1
2003-03-20 09:01:28 51°19.937 2°58.04 68.5 11.5 65 9.2
2003-03-20 09:01:33 51°19.944 2°58.063 68.2 11.5 65 9.1
2003-03-20 09:01:38 51°19.951 2°58.086 68.6 11.5 66 9.2
2003-03-20 09:01:43 51°19.957 2°58.109 68.4 11.5 65 9.2
2003-03-20 09:01:47 51°19.963 2°58.128 68.2 11.6 65 9.1
2003-03-20 09:01:53 51°19.971 2°58.156 68.2 11.5 65 9.1
2003-03-20 09:01:57 51°19.976 2°58.174 68.1 11.6 65 9.1
2003-03-20 09:02:03 51°19.985 2°58.202 68.1 11.6 65 9.2
2003-03-20 09:02:07 51°19.99 2°58.221 68.3 11.6 65 9.1
2003-03-20 09:02:13 51°19.998 2°58.249 68.2 11.6 65 8.8
2003-03-20 09:02:18 51°20.005 2°58.272 67.9 11.6 65 9.1
2003-03-20 09:02:23 51°20.012 2°58.295 68.3 11.6 65 8.6
2003-03-20 09:02:27 51°20.017 2°58.314 68.7 11.6 66 9.1
2003-03-20 09:02:31 51°20.023 2°58.333 68.9 11.6 66 8.5
2003-03-20 09:02:37 51°20.031 2°58.361 68.8 11.6 66 9.1
2003-03-20 09:02:43 51°20.039 2°58.389 68.8 11.6 66 9.1
2003-03-20 09:02:48 51°20.045 2°58.413 68.6 11.7 65 9.1
2003-03-20 09:02:53 51°20.052 2°58.436 68.2 11.7 65 9.1
2003-03-20 09:02:57 51°20.058 2°58.454 68.3 11.6 65 9.1
2003-03-20 09:03:03 51°20.066 2°58.482 68.5 11.7 65 9.2
2003-03-20 09:03:07 51°20.072 2°58.501 68.6 11.7 66 9
2003-03-20 09:03:13 51°20.08 2°58.529 68.6 11.7 65 8
2003-03-20 09:03:18 51°20.087 2°58.553 68.9 11.7 65 9.2
2003-03-20 09:03:23 51°20.093 2°58.576 68.4 11.7 65 9
2003-03-20 09:03:27 51°20.099 2°58.596 68.2 11.7 64 9.1
2003-03-20 09:03:33 51°20.106 2°58.624 68.1 11.7 65 9.1
2003-03-20 09:03:37 51°20.112 2°58.643 68.2 11.7 65 9.1
2003-03-20 09:03:43 51°20.121 2°58.671 68.2 11.7 65 9.1
2003-03-20 09:03:48 51°20.128 2°58.695 68.1 11.7 64 9.1
2003-03-20 09:03:53 51°20.135 2°58.718 68.2 11.7 65 9.1
2003-03-20 09:03:58 51°20.141 2°58.742 68.6 11.8 65 8.1
2003-03-20 09:04:02 51°20.147 2°58.761 68.6 11.8 65 9.1
2003-03-20 09:04:07 51°20.154 2°58.785 68.4 11.8 65 9.1
2003-03-20 09:04:13 51°20.162 2°58.813 68.7 11.8 65 9.1
2003-03-20 09:04:17 51°20.168 2°58.832 68.7 11.8 65 9.1
2003-03-20 09:04:23 51°20.176 2°58.86 68.4 11.8 65 9.1
2003-03-20 09:04:28 51°20.183 2°58.884 68.3 11.8 65 9.1
2003-03-20 09:04:33 51°20.19 2°58.907 68.4 11.8 65 9.1
2003-03-20 09:04:38 51°20.197 2°58.93 68.2 11.8 64 9.1
2003-03-20 09:04:43 51°20.205 2°58.954 68 11.7 64 9.1
2003-03-20 09:04:47 51°20.21 2°58.973 68 11.7 64 9.1
2003-03-20 09:04:53 51°20.219 2°59.001 68.4 11.8 65 8.9
2003-03-20 09:04:57 51°20.224 2°59.02 68.4 11.8 65 9.2
2003-03-20 09:05:03 51°20.232 2°59.049 69 11.8 65 9.1
2003-03-20 09:05:07 51°20.238 2°59.067 68.6 11.8 65 9.1
2003-03-20 09:05:13 51°20.246 2°59.096 68.5 11.8 65 9.1
2003-03-20 09:05:17 51°20.252 2°59.115 68.6 11.8 65 9.1
2003-03-20 09:05:23 51°20.26 2°59.143 68.5 11.8 65 9.1
2003-03-20 09:05:28 51°20.267 2°59.167 68.5 11.8 65 8.5
2003-03-20 09:05:33 51°20.274 2°59.191 68.8 11.8 65 9.1
2003-03-20 09:05:37 51°20.28 2°59.209 68.9 11.8 65 9.1
2003-03-20 09:05:42 51°20.286 2°59.233 69.3 11.8 66 9.1
2003-03-20 09:05:48 51°20.295 2°59.261 68.7 11.7 65 9.1
2003-03-20 09:05:53 51°20.301 2°59.285 68.7 11.7 65 9
2003-03-20 09:05:58 51°20.308 2°59.308 68.2 11.7 65 9
2003-03-20 09:06:02 51°20.314 2°59.327 67.9 11.7 65 9.1
2003-03-20 09:06:07 51°20.321 2°59.35 67.9 11.7 64 9
2003-03-20 09:06:12 51°20.328 2°59.373 67.6 11.7 64 8.6
2003-03-20 09:06:18 51°20.337 2°59.401 67.8 11.6 64 9.1
2003-03-20 09:06:23 51°20.344 2°59.424 68.2 11.6 64 9
2003-03-20 09:06:27 51°20.349 2°59.443 68.8 11.6 65 8.5
2003-03-20 09:06:32 51°20.356 2°59.466 68.6 11.6 65 9
2003-03-20 09:06:37 51°20.363 2°59.489 68.4 11.6 65 9
2003-03-20 09:06:43 51°20.371 2°59.517 68.6 11.6 65 9
2003-03-20 09:06:47 51°20.376 2°59.536 68.3 11.6 65 9.1
2003-03-20 09:06:53 51°20.385 2°59.564 68.3 11.6 65 9
2003-03-20 09:06:58 51°20.392 2°59.587 67.9 11.7 65 9.1
2003-03-20 09:07:02 51°20.397 2°59.606 67.9 11.6 64 9
2003-03-20 09:07:07 51°20.404 2°59.629 67.9 11.6 64 9
2003-03-20 09:07:13 51°20.413 2°59.657 68.2 11.6 65 9
2003-03-20 09:07:18 51°20.42 2°59.679 68.2 11.6 65 8.8
2003-03-20 09:07:23 51°20.426 2°59.703 68.3 11.6 65 9
2003-03-20 09:07:28 51°20.433 2°59.726 67.9 11.6 65 8.9
2003-03-20 09:07:31 51°20.437 2°59.74 67.7 11.6 64 9
2003-03-20 09:07:38 51°20.448 2°59.772 67.5 11.6 64 9.1
2003-03-20 09:07:43 51°20.454 2°59.796 67.9 11.6 64 9
2003-03-20 09:07:47 51°20.46 2°59.814 68.2 11.7 65 9
2003-03-20 09:07:53 51°20.468 2°59.842 68 11.7 65 9
2003-03-20 09:07:57 51°20.474 2°59.861 68 11.7 65 9.1
2003-03-20 09:08:03 51°20.482 2°59.889 67.6 11.7 64 9.1
2003-03-20 09:08:07 51°20.488 2°59.908 67.8 11.7 65 8.8
2003-03-20 09:08:13 51°20.496 2°59.936 68.2 11.7 65 9
2003-03-20 09:08:18 51°20.503 2°59.959 68.1 11.7 65 8.7
2003-03-20 09:08:23 51°20.51 2°59.983 68 11.7 65 9
2003-03-20 09:08:28 51°20.516 3°0.006 68 11.7 65 9
2003-03-20 09:08:33 51°20.524 3°0.03 68.2 11.7 65 9
2003-03-20 09:08:38 51°20.53 3°0.053 68.2 11.8 65 8.9
2003-03-20 09:08:43 51°20.537 3°0.077 68.2 11.8 65 9
2003-03-20 09:08:47 51°20.542 3°0.096 68.2 11.8 66 9
2003-03-20 09:08:53 51°20.55 3°0.125 68.2 11.8 66 9
2003-03-20 09:08:58 51°20.557 3°0.148 68.3 11.8 65 8.8
2003-03-20 09:09:03 51°20.564 3°0.172 68.5 11.7 66 8.5
2003-03-20 09:09:07 51°20.569 3°0.191 68.6 11.7 66 8.5
2003-03-20 09:09:13 51°20.577 3°0.219 68.6 11.7 66 8.9
2003-03-20 09:09:18 51°20.584 3°0.243 68.5 11.7 66 8.6
2003-03-20 09:09:23 51°20.59 3°0.266 68.2 11.7 66 8.8
2003-03-20 09:09:27 51°20.596 3°0.285 68.2 11.7 66 8.7
2003-03-20 09:09:33 51°20.604 3°0.314 68.3 11.7 66 9
2003-03-20 09:09:37 51°20.609 3°0.333 68.6 11.7 66 8.9
2003-03-20 09:09:43 51°20.617 3°0.361 68.2 11.7 66 9
2003-03-20 09:09:47 51°20.622 3°0.38 68.5 11.7 66 8.9
2003-03-20 09:09:53 51°20.63 3°0.408 68.5 11.7 66 8.9
2003-03-20 09:09:57 51°20.635 3°0.427 68.5 11.7 66 8.8
2003-03-20 09:10:03 51°20.643 3°0.456 68.4 11.7 66 8.8
2003-03-20 09:10:08 51°20.649 3°0.48 68.6 11.7 66 8.9
2003-03-20 09:10:13 51°20.656 3°0.504 68.1 11.8 66 8.8
2003-03-20 09:10:17 51°20.661 3°0.523 68.3 11.8 66 9
2003-03-20 09:10:23 51°20.67 3°0.551 68 11.7 66 9
2003-03-20 09:10:28 51°20.676 3°0.575 67.9 11.7 66 8.9
2003-03-20 09:10:33 51°20.683 3°0.598 67.9 11.7 66 9
2003-03-20 09:10:38 51°20.69 3°0.622 68.5 11.8 66 8.7
2003-03-20 09:10:42 51°20.695 3°0.641 68.2 11.8 66 9
2003-03-20 09:10:47 51°20.701 3°0.665 68.4 11.8 66 9
2003-03-20 09:10:53 51°20.709 3°0.694 68.5 11.8 66 8.8
2003-03-20 09:10:58 51°20.716 3°0.718 68.1 11.7 66 8.9
2003-03-20 09:11:03 51°20.722 3°0.741 68 11.8 66 8.8
2003-03-20 09:11:07 51°20.728 3°0.761 67.9 11.8 66 8.9
2003-03-20 09:11:13 51°20.735 3°0.789 67.8 11.8 66 8.9
2003-03-20 09:11:18 51°20.742 3°0.813 67.6 11.8 66 8.8
2003-03-20 09:11:23 51°20.749 3°0.836 67.5 11.8 66 8.9
2003-03-20 09:11:27 51°20.754 3°0.856 68.1 11.8 66 8.8
2003-03-20 09:11:33 51°20.762 3°0.885 68.2 11.8 66 8.9
2003-03-20 09:11:37 51°20.767 3°0.904 69.3 11.8 67 9
2003-03-20 09:11:43 51°20.774 3°0.933 69.5 11.8 68 8.8
2003-03-20 09:11:47 51°20.779 3°0.953 69.9 11.8 68 9
2003-03-20 09:11:51 51°20.784 3°0.972 70.6 11.8 69 8.8
2003-03-20 09:11:58 51°20.792 3°1.007 71 11.8 70 9
2003-03-20 09:12:03 51°20.797 3°1.032 71.3 11.8 70 8.9
2003-03-20 09:12:07 51°20.802 3°1.052 70.7 11.8 70 9
2003-03-20 09:12:13 51°20.809 3°1.081 70.9 11.8 70 9
2003-03-20 09:12:17 51°20.814 3°1.101 70.2 11.8 69 9.1
2003-03-20 09:12:23 51°20.821 3°1.13 70 11.8 69 8.9
2003-03-20 09:12:27 51°20.826 3°1.149 70.1 11.8 69 8.9
2003-03-20 09:12:33 51°20.833 3°1.178 70 11.8 69 8.9
2003-03-20 09:12:38 51°20.839 3°1.202 69.8 11.8 69 8.8
2003-03-20 09:12:43 51°20.845 3°1.227 69.8 11.8 69 8.8
2003-03-20 09:12:48 51°20.851 3°1.251 69.8 11.8 68 8.6
2003-03-20 09:12:53 51°20.857 3°1.276 70 11.8 69 8.9
2003-03-20 09:12:58 51°20.863 3°1.3 69.9 11.8 68 9
2003-03-20 09:13:03 51°20.87 3°1.324 70.2 11.8 69 9
2003-03-20 09:13:07 51°20.874 3°1.344 70.3 11.9 69 9
2003-03-20 09:13:13 51°20.881 3°1.374 70.1 11.9 69 8.9
2003-03-20 09:13:17 51°20.886 3°1.393 70.2 11.8 69 9
2003-03-20 09:13:23 51°20.894 3°1.422 70.3 11.9 69 8.9
2003-03-20 09:13:27 51°20.898 3°1.442 70.4 11.9 69 8.9
2003-03-20 09:13:33 51°20.905 3°1.472 70.3 11.9 69 9
2003-03-20 09:13:37 51°20.91 3°1.492 70.5 11.9 69 9
2003-03-20 09:13:43 51°20.917 3°1.521 70.7 11.9 70 8.7
2003-03-20 09:13:47 51°20.922 3°1.541 70.4 11.9 69 8.9
2003-03-20 09:13:53 51°20.929 3°1.571 70.1 11.9 69 9.1
2003-03-20 09:13:58 51°20.935 3°1.595 70.1 11.9 69 8.8
2003-03-20 09:14:03 51°20.941 3°1.62 70.2 11.9 69 8.9
2003-03-20 09:14:07 51°20.946 3°1.639 70.4 11.9 69 8.9
2003-03-20 09:14:11 51°20.951 3°1.659 70.6 11.9 69 8.3
2003-03-20 09:14:17 51°20.958 3°1.689 70.1 11.9 69 9
2003-03-20 09:14:23 51°20.965 3°1.718 70 11.9 69 9
2003-03-20 09:14:27 51°20.97 3°1.738 69.8 11.9 68 9
2003-03-20 09:14:31 51°20.975 3°1.758 70.2 11.9 69 9
2003-03-20 09:14:38 51°20.983 3°1.792 70.1 11.9 68 9.1
2003-03-20 09:14:43 51°20.989 3°1.817 70.4 11.9 69 9
2003-03-20 09:14:48 51°20.995 3°1.842 70.5 11.9 69 9
2003-03-20 09:14:53 51°21.001 3°1.866 70.7 12 69 9.1
2003-03-20 09:14:58 51°21.007 3°1.891 70.3 12 69 9.2
2003-03-20 09:15:03 51°21.013 3°1.916 70.4 12 69 9.2
2003-03-20 09:15:08 51°21.019 3°1.94 70.5 12 69 9.2
2003-03-20 09:15:13 51°21.025 3°1.965 70.5 12 69 9.2
2003-03-20 09:15:17 51°21.03 3°1.985 70.1 12 69 9.1
2003-03-20 09:15:23 51°21.038 3°2.014 70.2 12 68 9.2
2003-03-20 09:15:28 51°21.044 3°2.039 70.2 12.1 68 9.2
2003-03-20 09:15:33 51°21.05 3°2.064 70.6 12 68 9.2
2003-03-20 09:15:37 51°21.055 3°2.084 70.4 12 69 9.2
2003-03-20 09:15:42 51°21.062 3°2.109 70.4 12.1 68 9.2
2003-03-20 09:15:48 51°21.069 3°2.138 70.5 12.1 68 9.2
2003-03-20 09:15:53 51°21.075 3°2.163 70.1 12.1 68 8.6
2003-03-20 09:15:58 51°21.082 3°2.188 69.9 12 68 9.2
2003-03-20 09:16:02 51°21.087 3°2.207 69.9 12 68 9.3
2003-03-20 09:16:07 51°21.093 3°2.232 70.1 12.1 68 9.2
2003-03-20 09:16:13 51°21.101 3°2.262 70.4 12.1 68 9.3
2003-03-20 09:16:18 51°21.107 3°2.287 70.5 12.1 69 9.3
2003-03-20 09:16:23 51°21.113 3°2.312 70.8 12.1 69 9.3
2003-03-20 09:16:28 51°21.119 3°2.337 70.5 12.1 69 9.4
2003-03-20 09:16:33 51°21.126 3°2.362 70.4 12.2 68 9.4
2003-03-20 09:16:38 51°21.132 3°2.387 70.6 12.2 68 9.3
2003-03-20 09:16:43 51°21.138 3°2.412 70.7 12.2 69 9.3
2003-03-20 09:16:47 51°21.143 3°2.432 70.2 12.2 68 9.4
2003-03-20 09:16:52 51°21.15 3°2.457 70.4 12.2 68 9.4
2003-03-20 09:16:57 51°21.156 3°2.482 70.5 12.3 68 9.4
2003-03-20 09:17:03 51°21.164 3°2.512 70.3 12.3 68 9.4
2003-03-20 09:17:07 51°21.169 3°2.532 70.3 12.3 68 9.4
2003-03-20 09:17:12 51°21.176 3°2.557 70.2 12.3 68 9.4
2003-03-20 09:17:17 51°21.182 3°2.582 70.4 12.2 68 9.4
2003-03-20 09:17:23 51°21.189 3°2.613 70.7 12.2 68 9.4
2003-03-20 09:17:28 51°21.196 3°2.638 70.3 12.3 68 9.4
2003-03-20 09:17:33 51°21.203 3°2.663 70.2 12.2 68 9.4
2003-03-20 09:17:37 51°21.208 3°2.683 70.2 12.2 68 9.5
2003-03-20 09:17:43 51°21.216 3°2.713 70.3 12.3 68 9.4
2003-03-20 09:17:47 51°21.221 3°2.733 70.7 12.3 68 9.5
2003-03-20 09:17:51 51°21.226 3°2.753 70.4 12.3 68 9.5
2003-03-20 09:17:58 51°21.235 3°2.789 70.1 12.3 68 9.5
2003-03-20 09:18:03 51°21.242 3°2.814 70.1 12.3 68 9.5
2003-03-20 09:18:07 51°21.248 3°2.833 70.2 12.3 68 9.6
2003-03-20 09:18:13 51°21.255 3°2.864 70.2 12.3 68 9.5
2003-03-20 09:18:18 51°21.262 3°2.889 70.4 12.3 68 9.5
2003-03-20 09:18:22 51°21.267 3°2.909 70.2 12.3 68 9.6
2003-03-20 09:18:27 51°21.273 3°2.934 69.7 12.3 67 9.6
2003-03-20 09:18:33 51°21.281 3°2.965 70 12.3 67 9.5
2003-03-20 09:18:38 51°21.288 3°2.99 69.5 12.3 67 9.6
2003-03-20 09:18:43 51°21.294 3°3.015 69.7 12.3 67 9.6
2003-03-20 09:18:47 51°21.3 3°3.035 70 12.2 67 9.6
2003-03-20 09:18:53 51°21.308 3°3.065 70.4 12.3 68 9.6
2003-03-20 09:18:58 51°21.314 3°3.09 70.4 12.3 68 9.6
2003-03-20 09:19:03 51°21.32 3°3.115 70.2 12.3 68 9.6
2003-03-20 09:19:07 51°21.326 3°3.135 70.1 12.3 67 9.6
2003-03-20 09:19:13 51°21.334 3°3.165 70.4 12.3 68 9.6
2003-03-20 09:19:17 51°21.339 3°3.185 70.5 12.3 68 9.7
2003-03-20 09:19:23 51°21.347 3°3.215 70.4 12.3 68 9.7
2003-03-20 09:19:28 51°21.353 3°3.241 70.5 12.3 68 9.6
2003-03-20 09:19:33 51°21.36 3°3.266 70.2 12.3 67 9.7
2003-03-20 09:19:37 51°21.365 3°3.286 70.2 12.3 67 9.7
2003-03-20 09:19:43 51°21.373 3°3.316 70.4 12.3 67 9.6
2003-03-20 09:19:47 51°21.378 3°3.336 70.4 12.3 67 9.7
2003-03-20 09:19:53 51°21.387 3°3.366 70.1 12.3 67 9.7
2003-03-20 09:19:57 51°21.392 3°3.386 70.2 12.3 67 9.7
2003-03-20 09:20:03 51°21.4 3°3.417 70.5 12.3 67 9.7
2003-03-20 09:20:08 51°21.406 3°3.442 70.4 12.4 67 9.7
2003-03-20 09:20:13 51°21.413 3°3.467 70.3 12.4 67 9.7
2003-03-20 09:20:18 51°21.419 3°3.492 70.7 12.3 68 9.8
2003-03-20 09:20:22 51°21.425 3°3.512 70.6 12.4 68 9.8
2003-03-20 09:20:27 51°21.431 3°3.538 70.6 12.4 68 9.7
2003-03-20 09:20:33 51°21.439 3°3.568 70.9 12.3 68 9.7
2003-03-20 09:20:37 51°21.444 3°3.588 70.8 12.4 67 9.7
2003-03-20 09:20:43 51°21.452 3°3.618 70.4 12.4 67 9.7
2003-03-20 09:20:47 51°21.458 3°3.639 70.4 12.4 67 9.8
2003-03-20 09:20:53 51°21.465 3°3.669 70.4 12.4 67 9.8
2003-03-20 09:20:58 51°21.472 3°3.694 70.5 12.3 67 9.8
2003-03-20 09:21:03 51°21.479 3°3.719 70.7 12.3 68 9.8
2003-03-20 09:21:07 51°21.484 3°3.74 70.1 12.4 67 9.8
2003-03-20 09:21:13 51°21.492 3°3.77 70.3 12.4 67 9.8
2003-03-20 09:21:17 51°21.497 3°3.79 70.5 12.4 68 9.8
2003-03-20 09:21:23 51°21.505 3°3.821 70.4 12.4 68 9.8
2003-03-20 09:21:27 51°21.51 3°3.841 70.2 12.4 67 9.8
2003-03-20 09:21:31 51°21.516 3°3.861 70.1 12.4 67 9.8
2003-03-20 09:21:38 51°21.525 3°3.896 70.2 12.3 67 9.8
2003-03-20 09:21:43 51°21.531 3°3.921 70.4 12.3 68 9.8
2003-03-20 09:21:47 51°21.537 3°3.942 70.1 12.4 67 9.8
2003-03-20 09:21:53 51°21.545 3°3.972 70 12.4 67 9.8
2003-03-20 09:21:58 51°21.552 3°3.997 70.4 12.4 68 9.8
2003-03-20 09:22:03 51°21.558 3°4.022 70.9 12.4 68 9.9
2003-03-20 09:22:08 51°21.564 3°4.048 71.6 12.3 68 9.8
2003-03-20 09:22:13 51°21.57 3°4.074 71.8 12.4 69 9.8
2003-03-20 09:22:17 51°21.575 3°4.095 72.1 12.4 70 9.8
2003-03-20 09:22:23 51°21.582 3°4.125 72.3 12.4 70 9.9
2003-03-20 09:22:27 51°21.587 3°4.146 72.5 12.4 70 9.8
2003-03-20 09:22:31 51°21.592 3°4.166 73 12.3 70 9.9
2003-03-20 09:22:38 51°21.6 3°4.203 72.6 12.4 70 9.8
2003-03-20 09:22:43 51°21.606 3°4.229 72.4 12.4 70 9.9
2003-03-20 09:22:47 51°21.61 3°4.249 72.3 12.4 70 9.9
2003-03-20 09:22:53 51°21.618 3°4.28 72.5 12.4 70 9.9
2003-03-20 09:22:58 51°21.624 3°4.306 72 12.4 70 9.8
2003-03-20 09:23:03 51°21.63 3°4.332 71.8 12.4 69 9.9
2003-03-20 09:23:07 51°21.634 3°4.352 72.1 12.4 70 9.9
2003-03-20 09:23:13 51°21.641 3°4.383 72.6 12.3 70 9.9
2003-03-20 09:23:18 51°21.648 3°4.409 72 12.4 70 9.9
2003-03-20 09:23:22 51°21.652 3°4.429 72.2 12.4 70 9.9
2003-03-20 09:23:27 51°21.658 3°4.455 72.5 12.4 70 9.9
2003-03-20 09:23:33 51°21.666 3°4.486 72 12.4 70 9.9
2003-03-20 09:23:37 51°21.67 3°4.507 72.2 12.5 70 9.9
2003-03-20 09:23:43 51°21.677 3°4.538 72.6 12.4 70 9.9
2003-03-20 09:23:47 51°21.682 3°4.559 72.5 12.4 70 9.9
2003-03-20 09:23:53 51°21.689 3°4.59 72 12.4 70 10.1
2003-03-20 09:23:57 51°21.694 3°4.611 72.4 12.4 70 10
2003-03-20 09:24:03 51°21.701 3°4.642 72.4 12.5 70 9.9
2003-03-20 09:24:08 51°21.707 3°4.668 72.5 12.5 70 9.9
2003-03-20 09:24:13 51°21.713 3°4.694 71.8 12.5 70 9.9
2003-03-20 09:24:18 51°21.719 3°4.719 72 12.5 69 10
2003-03-20 09:24:23 51°21.725 3°4.745 72.2 12.4 70 10
2003-03-20 09:24:28 51°21.731 3°4.771 72.5 12.4 70 10
2003-03-20 09:24:33 51°21.736 3°4.797 72.6 12.4 70 10
2003-03-20 09:24:37 51°21.741 3°4.818 72.4 12.5 70 10
2003-03-20 09:24:43 51°21.748 3°4.85 72.3 12.5 70 10
2003-03-20 09:24:47 51°21.753 3°4.87 72.2 12.5 70 10.1
2003-03-20 09:24:51 51°21.758 3°4.891 72.3 12.5 70 10.1
2003-03-20 09:24:58 51°21.766 3°4.927 72.6 12.5 70 10
2003-03-20 09:25:02 51°21.77 3°4.948 72.6 12.5 70 10.1
2003-03-20 09:25:07 51°21.776 3°4.974 72.2 12.5 69 10.2
2003-03-20 09:25:11 51°21.781 3°4.995 72.4 12.5 69 10.2
2003-03-20 09:25:17 51°21.788 3°5.026 72.6 12.5 69 10.2
2003-03-20 09:25:23 51°21.795 3°5.057 72.5 12.5 70 10.2
2003-03-20 09:25:27 51°21.8 3°5.078 72.4 12.6 70 10.2
2003-03-20 09:25:33 51°21.807 3°5.109 72.4 12.5 70 10.2
2003-03-20 09:25:37 51°21.812 3°5.13 72.5 12.6 70 10.2
2003-03-20 09:25:43 51°21.819 3°5.162 72.5 12.6 70 10.2
2003-03-20 09:25:47 51°21.824 3°5.183 72.3 12.6 70 10.2
2003-03-20 09:25:51 51°21.829 3°5.204 72 12.6 70 10.3
2003-03-20 09:25:58 51°21.837 3°5.24 72.5 12.6 70 10.2
2003-03-20 09:26:02 51°21.842 3°5.261 71.8 12.6 70 10.3
2003-03-20 09:26:07 51°21.848 3°5.287 72.2 12.6 70 10.3
2003-03-20 09:26:13 51°21.856 3°5.318 72.4 12.5 70 10.3
2003-03-20 09:26:18 51°21.861 3°5.345 73.1 12.5 70 10.3
2003-03-20 09:26:23 51°21.867 3°5.371 73.1 12.7 70 10.2
2003-03-20 09:26:28 51°21.873 3°5.397 73 12.7 70 10.3
2003-03-20 09:26:33 51°21.879 3°5.423 73.3 12.7 70 10.3
2003-03-20 09:26:38 51°21.884 3°5.449 73.3 12.6 70 10.4
2003-03-20 09:26:42 51°21.889 3°5.47 73.6 12.5 71 10.3
2003-03-20 09:26:47 51°21.894 3°5.496 74 12.5 71 10.4
2003-03-20 09:26:53 51°21.901 3°5.528 73.7 12.5 71 10.3
2003-03-20 09:26:57 51°21.905 3°5.549 73.8 12.5 71 10.3
2003-03-20 09:27:03 51°21.912 3°5.58 73.4 12.5 71 10.3
2003-03-20 09:27:08 51°21.917 3°5.607 73 12.5 71 10.3
2003-03-20 09:27:11 51°21.92 3°5.622 73.2 12.5 71 10.4
2003-03-20 09:27:18 51°21.928 3°5.659 73.4 12.5 71 10.4
2003-03-20 09:27:23 51°21.933 3°5.686 73.6 12.5 72 10.4
2003-03-20 09:27:28 51°21.939 3°5.712 73.3 12.5 71 10.5
2003-03-20 09:27:33 51°21.944 3°5.738 73.3 12.5 71 10.5
2003-03-20 09:27:37 51°21.949 3°5.759 73.5 12.6 72 10.5
2003-03-20 09:27:43 51°21.955 3°5.79 73.4 12.5 72 10.5
2003-03-20 09:27:47 51°21.96 3°5.811 73.4 12.5 71 10.5
2003-03-20 09:27:52 51°21.966 3°5.838 73.4 12.5 71 10.5
2003-03-20 09:27:58 51°21.972 3°5.869 73.3 12.5 71 10.5
2003-03-20 09:28:02 51°21.977 3°5.89 73.2 12.5 71 10.5
2003-03-20 09:28:07 51°21.982 3°5.916 73.1 12.5 71 10.5
2003-03-20 09:28:13 51°21.989 3°5.948 73.3 12.5 71 10.5
2003-03-20 09:28:18 51°21.995 3°5.975 73.3 12.6 71 10.5
2003-03-20 09:28:23 51°22 3°6.001 73.3 12.6 71 10.5
2003-03-20 09:28:27 51°22.005 3°6.022 73.6 12.6 71 10.5
2003-03-20 09:28:33 51°22.012 3°6.054 73.2 12.7 71 10.5
2003-03-20 09:28:38 51°22.018 3°6.08 72.9 12.6 70 10.6
2003-03-20 09:28:43 51°22.023 3°6.107 73.3 12.6 71 10.5
2003-03-20 09:28:48 51°22.029 3°6.133 73.2 12.6 71 10.5
2003-03-20 09:28:53 51°22.035 3°6.159 73.1 12.6 71 10.6
2003-03-20 09:28:57 51°22.039 3°6.181 73.3 12.6 71 10.4
2003-03-20 09:29:03 51°22.046 3°6.212 73.7 12.6 71 10.6
2003-03-20 09:29:07 51°22.051 3°6.233 73.4 12.6 71 10.7
2003-03-20 09:29:13 51°22.057 3°6.265 73.3 12.6 70 10.7
2003-03-20 09:29:18 51°22.063 3°6.292 73.3 12.6 71 10.8
2003-03-20 09:29:23 51°22.069 3°6.318 72.8 12.7 70 10.8
2003-03-20 09:29:28 51°22.075 3°6.344 73.1 12.6 70 10.7
2003-03-20 09:29:32 51°22.079 3°6.366 73 12.6 71 10.8
2003-03-20 09:29:37 51°22.085 3°6.392 73 12.6 71 10.7
2003-03-20 09:29:43 51°22.092 3°6.424 73.4 12.6 71 10.8
2003-03-20 09:29:48 51°22.097 3°6.45 73.8 12.6 71 10.8
2003-03-20 09:29:53 51°22.103 3°6.477 73.4 12.6 71 10.9
2003-03-20 09:29:58 51°22.109 3°6.503 73.4 12.6 71 10.8
2003-03-20 09:30:03 51°22.114 3°6.529 73.4 12.6 71 10.8
2003-03-20 09:30:07 51°22.119 3°6.55 73.2 12.6 71 10.8
2003-03-20 09:30:13 51°22.126 3°6.582 73.4 12.5 71 10.8
2003-03-20 09:30:18 51°22.132 3°6.608 73.5 12.6 71 10.9
2003-03-20 09:30:23 51°22.138 3°6.634 73.1 12.6 71 11
2003-03-20 09:30:27 51°22.142 3°6.655 73.4 12.6 71 11.1
2003-03-20 09:30:33 51°22.149 3°6.687 73.7 12.6 71 11.1
2003-03-20 09:30:38 51°22.155 3°6.713 73.5 12.6 71 11
2003-03-20 09:30:43 51°22.16 3°6.74 73.3 12.6 71 11
2003-03-20 09:30:47 51°22.165 3°6.761 73 12.7 70 11
2003-03-20 09:30:52 51°22.171 3°6.787 72.9 12.6 70 11.1
2003-03-20 09:30:57 51°22.177 3°6.813 73.6 12.6 71 11.1
2003-03-20 09:31:03 51°22.184 3°6.845 73.2 12.6 70 11.1
2003-03-20 09:31:07 51°22.188 3°6.866 73.3 12.6 70 11.1
2003-03-20 09:31:13 51°22.195 3°6.898 73.6 12.6 71 11.1
2003-03-20 09:31:18 51°22.201 3°6.924 73.2 12.5 71 11
2003-03-20 09:31:23 51°22.207 3°6.95 73.4 12.5 70 11
2003-03-20 09:31:27 51°22.212 3°6.971 73.8 12.5 70 11.1
2003-03-20 09:31:33 51°22.219 3°7.002 73.8 12.5 71 11
2003-03-20 09:31:37 51°22.223 3°7.023 73.3 12.5 71 11
2003-03-20 09:31:43 51°22.23 3°7.054 73.3 12.5 71 11
2003-03-20 09:31:47 51°22.235 3°7.075 73.3 12.5 71 11.1
2003-03-20 09:31:51 51°22.239 3°7.097 73.3 12.5 71 11.2
2003-03-20 09:31:57 51°22.246 3°7.128 73.3 12.6 69 11.1
2003-03-20 09:32:03 51°22.253 3°7.159 73.3 12.6 69 11.1
2003-03-20 09:32:08 51°22.259 3°7.185 73.4 12.5 70 11.1
2003-03-20 09:32:13 51°22.265 3°7.212 73.3 12.5 71 11.2
2003-03-20 09:32:17 51°22.269 3°7.233 73.3 12.5 71 11.1
2003-03-20 09:32:23 51°22.276 3°7.264 73.3 12.5 71 11.2
2003-03-20 09:32:27 51°22.281 3°7.285 73.3 12.5 70 11.2
2003-03-20 09:32:33 51°22.288 3°7.316 73.3 12.5 70 11.2
2003-03-20 09:32:38 51°22.293 3°7.342 73.3 12.5 71 11.2
2003-03-20 09:32:43 51°22.299 3°7.369 73.3 12.5 71 11.2
2003-03-20 09:32:47 51°22.303 3°7.39 73.6 12.5 71 11.2
2003-03-20 09:32:51 51°22.308 3°7.412 73.8 12.6 71 11.2
2003-03-20 09:32:58 51°22.316 3°7.449 74.1 12.5 72 11.2
2003-03-20 09:33:02 51°22.32 3°7.471 73.8 12.6 72 11.2
2003-03-20 09:33:07 51°22.327 3°7.497 73.5 12.7 70 11.2
2003-03-20 09:33:13 51°22.334 3°7.529 73.4 12.7 69 11.2
2003-03-20 09:33:18 51°22.339 3°7.555 73.7 12.6 70 11.2
2003-03-20 09:33:23 51°22.344 3°7.581 74 12.6 72 11.2
2003-03-20 09:33:28 51°22.35 3°7.608 73.8 12.6 72 11.2
2003-03-20 09:33:33 51°22.355 3°7.634 73.8 12.6 72 11.2
2003-03-20 09:33:38 51°22.361 3°7.661 73.7 12.6 72 11.2
2003-03-20 09:33:42 51°22.365 3°7.682 73.4 12.6 71 11.3
2003-03-20 09:33:47 51°22.37 3°7.708 73.7 12.6 71 11.2
2003-03-20 09:33:53 51°22.377 3°7.74 73.4 12.6 72 11.3
2003-03-20 09:33:58 51°22.382 3°7.766 73.2 12.6 71 11.3
2003-03-20 09:34:03 51°22.388 3°7.793 73.1 12.6 71 11.3
2003-03-20 09:34:08 51°22.393 3°7.819 73.5 12.6 71 11.3
2003-03-20 09:34:11 51°22.397 3°7.835 73.7 12.6 72 10
2003-03-20 09:34:18 51°22.404 3°7.872 73.3 12.6 71 11.3
2003-03-20 09:34:22 51°22.409 3°7.893 73.3 12.6 71 11.3
2003-03-20 09:34:27 51°22.415 3°7.919 73.3 12.6 71 11.3
2003-03-20 09:34:33 51°22.422 3°7.951 73.3 12.6 71 11.4
2003-03-20 09:34:38 51°22.427 3°7.977 73.4 12.6 71 11.5
2003-03-20 09:34:43 51°22.432 3°8.004 73.3 12.6 71 11.4
2003-03-20 09:34:47 51°22.437 3°8.025 73 12.6 71 11.4
2003-03-20 09:34:53 51°22.444 3°8.057 73.3 12.6 71 11.4
2003-03-20 09:34:57 51°22.449 3°8.078 73.3 12.5 71 11.4
2003-03-20 09:35:03 51°22.456 3°8.109 73.1 12.5 71 11.4
2003-03-20 09:35:07 51°22.46 3°8.13 72.9 12.5 71 11.5
2003-03-20 09:35:13 51°22.467 3°8.161 73.2 12.5 71 11.5
2003-03-20 09:35:18 51°22.473 3°8.187 73.2 12.4 71 11.6
2003-03-20 09:35:23 51°22.479 3°8.213 73.3 12.4 71 11.5
2003-03-20 09:35:27 51°22.483 3°8.234 73.3 12.4 71 11.5
2003-03-20 09:35:33 51°22.49 3°8.265 73.1 12.4 71 11.6
2003-03-20 09:35:38 51°22.495 3°8.291 72.9 12.4 71 11.6
2003-03-20 09:35:43 51°22.501 3°8.317 73.1 12.3 71 11.5
2003-03-20 09:35:48 51°22.506 3°8.343 73.5 12.3 71 11.6
2003-03-20 09:35:52 51°22.511 3°8.364 73.2 12.3 71 11.6
2003-03-20 09:35:58 51°22.517 3°8.395 73.7 12.3 71 11.6
2003-03-20 09:36:03 51°22.523 3°8.421 73.5 12.3 71 11.6
2003-03-20 09:36:07 51°22.527 3°8.441 73.1 12.3 71 11.6
2003-03-20 09:36:13 51°22.534 3°8.472 73.1 12.2 71 11.5
2003-03-20 09:36:18 51°22.539 3°8.498 73.7 12.2 71 11.6
2003-03-20 09:36:23 51°22.545 3°8.523 73.3 12.2 71 11.6
2003-03-20 09:36:27 51°22.549 3°8.544 73.3 12.2 71 11.6
2003-03-20 09:36:33 51°22.556 3°8.574 73.5 12.2 71 11.6
2003-03-20 09:36:37 51°22.561 3°8.594 73.6 12.2 71 11.6
2003-03-20 09:36:43 51°22.567 3°8.625 73.3 12.2 71 11.6
2003-03-20 09:36:47 51°22.572 3°8.645 73.4 12.2 70 11.6
2003-03-20 09:36:53 51°22.578 3°8.676 73.6 12.2 71 11.6
2003-03-20 09:36:57 51°22.583 3°8.697 73.6 12.2 71 11.6
2003-03-20 09:37:03 51°22.59 3°8.727 73.5 12.2 71 11.7
2003-03-20 09:37:07 51°22.594 3°8.748 73.8 12.2 71 11.7
2003-03-20 09:37:13 51°22.6 3°8.778 75.8 12.1 73 11.6
2003-03-20 09:37:18 51°22.603 3°8.803 78.2 11.8 75 11.6
2003-03-20 09:37:23 51°22.606 3°8.828 81.2 11.4 78 11.6
2003-03-20 09:37:27 51°22.607 3°8.847 84.1 11 81 11.7
2003-03-20 09:37:33 51°22.609 3°8.874 84.6 10.7 83 11.8
2003-03-20 09:37:37 51°22.611 3°8.892 83.8 10.4 83 11.9
2003-03-20 09:37:43 51°22.614 3°8.919 81.2 10.2 81 11.9
2003-03-20 09:37:47 51°22.616 3°8.936 79.9 9.9 79 11.9
2003-03-20 09:37:53 51°22.619 3°8.961 79.2 9.8 78 11.8
2003-03-20 09:37:58 51°22.622 3°8.982 79.5 9.8 79 11.7
2003-03-20 09:38:03 51°22.624 3°9.003 80.7 9.7 79 11.8
2003-03-20 09:38:07 51°22.626 3°9.02 82.3 9.7 81 11.9
2003-03-20 09:38:13 51°22.627 3°9.046 84.9 9.6 82 12
2003-03-20 09:38:17 51°22.628 3°9.063 86.2 9.6 84 12.1
2003-03-20 09:38:23 51°22.629 3°9.087 86.8 9.2 86 12
2003-03-20 09:38:27 51°22.629 3°9.102 87.7 8.8 87 12
2003-03-20 09:38:33 51°22.63 3°9.124 86.5 8.4 87 11.9
2003-03-20 09:38:38 51°22.632 3°9.141 84.5 8 85 11.9
2003-03-20 09:38:43 51°22.633 3°9.158 81.9 7.7 83 12
2003-03-20 09:38:47 51°22.635 3°9.171 78.6 7.4 80 12
2003-03-20 09:38:53 51°22.637 3°9.189 75.8 7.2 77 12.1
2003-03-20 09:38:58 51°22.639 3°9.203 74.1 6.9 75 12.2
2003-03-20 09:39:03 51°22.642 3°9.217 72.9 6.7 73 12.3
2003-03-20 09:39:07 51°22.644 3°9.227 72 6.4 72 12.3
2003-03-20 09:39:13 51°22.647 3°9.241 71 6 71 12.3
2003-03-20 09:39:17 51°22.65 3°9.251 70.4 5.8 70 12.2
2003-03-20 09:39:23 51°22.653 3°9.264 69.8 5.5 70 12.1
2003-03-20 09:39:26 51°22.654 3°9.271 69.8 5.3 70 12.1
2003-03-20 09:39:33 51°22.657 3°9.285 70 5.1 70 11.9
2003-03-20 09:39:37 51°22.659 3°9.293 70.6 4.9 70 12.1